sensor_id;sensor_type;location;lat;lon;timestamp;temperature;humidity
41220;DHT22;26951;47.338;9.196;2023-04-03T00:02:12;5.40;69.10
41220;DHT22;26951;47.338;9.196;2023-04-03T00:04:56;5.30;69.30
41220;DHT22;26951;47.338;9.196;2023-04-03T00:07:40;5.20;69.00
41220;DHT22;26951;47.338;9.196;2023-04-03T00:10:24;5.10;69.10
41220;DHT22;26951;47.338;9.196;2023-04-03T00:13:09;5.10;69.00
41220;DHT22;26951;47.338;9.196;2023-04-03T00:15:53;5.10;69.10
41220;DHT22;26951;47.338;9.196;2023-04-03T00:18:38;5.10;69.20
41220;DHT22;26951;47.338;9.196;2023-04-03T00:21:23;5.10;69.50
41220;DHT22;26951;47.338;9.196;2023-04-03T00:24:08;5.10;69.50
41220;DHT22;26951;47.338;9.196;2023-04-03T00:26:51;5.00;69.30
41220;DHT22;26951;47.338;9.196;2023-04-03T00:29:36;5.00;68.90
41220;DHT22;26951;47.338;9.196;2023-04-03T00:32:20;4.90;68.90
41220;DHT22;26951;47.338;9.196;2023-04-03T00:35:05;4.90;68.80
41220;DHT22;26951;47.338;9.196;2023-04-03T00:37:54;4.90;68.80
41220;DHT22;26951;47.338;9.196;2023-04-03T00:40:42;4.80;68.90
41220;DHT22;26951;47.338;9.196;2023-04-03T00:43:28;4.70;68.80
41220;DHT22;26951;47.338;9.196;2023-04-03T00:46:12;4.70;68.70
41220;DHT22;26951;47.338;9.196;2023-04-03T00:48:56;4.70;68.80
41220;DHT22;26951;47.338;9.196;2023-04-03T00:51:40;4.70;69.20
41220;DHT22;26951;47.338;9.196;2023-04-03T00:54:25;4.70;69.30
41220;DHT22;26951;47.338;9.196;2023-04-03T00:57:10;4.60;69.10
41220;DHT22;26951;47.338;9.196;2023-04-03T01:00:03;4.60;69.10
41220;DHT22;26951;47.338;9.196;2023-04-03T01:02:51;4.50;69.00
41220;DHT22;26951;47.338;9.196;2023-04-03T01:05:35;4.50;68.90
41220;DHT22;26951;47.338;9.196;2023-04-03T01:08:20;4.40;69.20
41220;DHT22;26951;47.338;9.196;2023-04-03T01:11:04;4.40;69.50
41220;DHT22;26951;47.338;9.196;2023-04-03T01:13:48;4.30;69.60
41220;DHT22;26951;47.338;9.196;2023-04-03T01:16:33;4.30;69.50
41220;DHT22;26951;47.338;9.196;2023-04-03T01:19:17;4.30;69.60
41220;DHT22;26951;47.338;9.196;2023-04-03T01:22:15;4.10;69.70
41220;DHT22;26951;47.338;9.196;2023-04-03T01:25:02;4.10;69.60
41220;DHT22;26951;47.338;9.196;2023-04-03T01:27:46;4.10;69.20
41220;DHT22;26951;47.338;9.196;2023-04-03T01:30:36;4.00;69.10
41220;DHT22;26951;47.338;9.196;2023-04-03T01:33:24;3.90;70.10
41220;DHT22;26951;47.338;9.196;2023-04-03T01:36:08;3.90;69.10
41220;DHT22;26951;47.338;9.196;2023-04-03T01:38:53;3.90;68.70
41220;DHT22;26951;47.338;9.196;2023-04-03T01:41:38;3.90;69.10
41220;DHT22;26951;47.338;9.196;2023-04-03T01:44:22;3.90;68.80
41220;DHT22;26951;47.338;9.196;2023-04-03T01:47:06;3.90;68.20
41220;DHT22;26951;47.338;9.196;2023-04-03T01:49:51;3.90;68.40
41220;DHT22;26951;47.338;9.196;2023-04-03T01:52:35;3.90;68.40
41220;DHT22;26951;47.338;9.196;2023-04-03T01:55:19;3.80;68.10
41220;DHT22;26951;47.338;9.196;2023-04-03T01:58:04;3.80;68.10
41220;DHT22;26951;47.338;9.196;2023-04-03T02:00:48;3.80;68.00
41220;DHT22;26951;47.338;9.196;2023-04-03T02:03:32;3.60;68.60
41220;DHT22;26951;47.338;9.196;2023-04-03T02:06:16;3.50;68.70
41220;DHT22;26951;47.338;9.196;2023-04-03T02:09:00;3.50;68.40
41220;DHT22;26951;47.338;9.196;2023-04-03T02:11:45;3.50;68.90
41220;DHT22;26951;47.338;9.196;2023-04-03T02:14:29;3.50;68.50
41220;DHT22;26951;47.338;9.196;2023-04-03T02:17:13;3.50;69.00
41220;DHT22;26951;47.338;9.196;2023-04-03T02:19:57;3.40;69.30
41220;DHT22;26951;47.338;9.196;2023-04-03T02:22:42;3.30;69.20
41220;DHT22;26951;47.338;9.196;2023-04-03T02:25:26;3.20;69.60
41220;DHT22;26951;47.338;9.196;2023-04-03T02:28:10;3.20;69.50
41220;DHT22;26951;47.338;9.196;2023-04-03T02:30:54;3.20;68.90
41220;DHT22;26951;47.338;9.196;2023-04-03T02:33:39;3.30;69.00
41220;DHT22;26951;47.338;9.196;2023-04-03T02:36:23;3.10;69.30
41220;DHT22;26951;47.338;9.196;2023-04-03T02:39:07;3.10;68.40
41220;DHT22;26951;47.338;9.196;2023-04-03T02:41:51;3.10;67.90
41220;DHT22;26951;47.338;9.196;2023-04-03T02:44:35;3.10;66.90
41220;DHT22;26951;47.338;9.196;2023-04-03T02:47:19;3.00;66.10
41220;DHT22;26951;47.338;9.196;2023-04-03T02:50:04;2.90;65.80
41220;DHT22;26951;47.338;9.196;2023-04-03T02:52:48;2.80;65.00
41220;DHT22;26951;47.338;9.196;2023-04-03T02:55:33;2.70;64.30
41220;DHT22;26951;47.338;9.196;2023-04-03T02:58:17;2.60;65.10
41220;DHT22;26951;47.338;9.196;2023-04-03T03:01:01;2.60;65.00
41220;DHT22;26951;47.338;9.196;2023-04-03T03:03:46;2.50;65.70
41220;DHT22;26951;47.338;9.196;2023-04-03T03:06:30;2.50;65.30
41220;DHT22;26951;47.338;9.196;2023-04-03T03:09:14;2.50;65.20
41220;DHT22;26951;47.338;9.196;2023-04-03T03:11:58;2.50;65.00
41220;DHT22;26951;47.338;9.196;2023-04-03T03:14:42;2.40;64.30
41220;DHT22;26951;47.338;9.196;2023-04-03T03:17:26;2.40;64.20
41220;DHT22;26951;47.338;9.196;2023-04-03T03:20:11;2.40;64.70
41220;DHT22;26951;47.338;9.196;2023-04-03T03:22:58;2.30;64.00
41220;DHT22;26951;47.338;9.196;2023-04-03T03:25:42;2.30;64.10
41220;DHT22;26951;47.338;9.196;2023-04-03T03:28:26;2.20;64.70
41220;DHT22;26951;47.338;9.196;2023-04-03T03:31:10;2.10;65.00
41220;DHT22;26951;47.338;9.196;2023-04-03T03:33:54;2.10;65.10
41220;DHT22;26951;47.338;9.196;2023-04-03T03:36:38;2.10;65.50
41220;DHT22;26951;47.338;9.196;2023-04-03T03:39:23;2.10;65.10
41220;DHT22;26951;47.338;9.196;2023-04-03T03:42:07;2.10;63.80
41220;DHT22;26951;47.338;9.196;2023-04-03T03:44:51;2.10;65.10
41220;DHT22;26951;47.338;9.196;2023-04-03T03:47:35;2.00;64.90
41220;DHT22;26951;47.338;9.196;2023-04-03T03:50:20;1.90;65.00
41220;DHT22;26951;47.338;9.196;2023-04-03T03:53:04;1.90;65.40
41220;DHT22;26951;47.338;9.196;2023-04-03T03:55:49;2.00;65.20
41220;DHT22;26951;47.338;9.196;2023-04-03T03:58:33;1.90;64.90
41220;DHT22;26951;47.338;9.196;2023-04-03T04:01:17;1.90;64.60
41220;DHT22;26951;47.338;9.196;2023-04-03T04:04:01;1.90;65.10
41220;DHT22;26951;47.338;9.196;2023-04-03T04:06:46;1.90;65.60
41220;DHT22;26951;47.338;9.196;2023-04-03T04:09:30;1.90;66.00
41220;DHT22;26951;47.338;9.196;2023-04-03T04:12:14;1.80;64.90
41220;DHT22;26951;47.338;9.196;2023-04-03T04:14:59;1.80;65.50
41220;DHT22;26951;47.338;9.196;2023-04-03T04:17:43;1.80;65.30
41220;DHT22;26951;47.338;9.196;2023-04-03T04:20:27;1.80;65.50
41220;DHT22;26951;47.338;9.196;2023-04-03T04:23:12;1.90;65.90
41220;DHT22;26951;47.338;9.196;2023-04-03T04:25:55;1.90;64.40
41220;DHT22;26951;47.338;9.196;2023-04-03T04:28:39;1.90;65.50
41220;DHT22;26951;47.338;9.196;2023-04-03T04:31:24;1.90;65.40
41220;DHT22;26951;47.338;9.196;2023-04-03T04:34:08;1.90;65.30
41220;DHT22;26951;47.338;9.196;2023-04-03T04:36:52;1.90;64.10
41220;DHT22;26951;47.338;9.196;2023-04-03T04:39:36;1.80;63.60
41220;DHT22;26951;47.338;9.196;2023-04-03T04:42:20;1.80;64.30
41220;DHT22;26951;47.338;9.196;2023-04-03T04:45:05;1.70;63.00
41220;DHT22;26951;47.338;9.196;2023-04-03T04:47:49;1.70;64.20
41220;DHT22;26951;47.338;9.196;2023-04-03T04:50:35;1.70;63.80
41220;DHT22;26951;47.338;9.196;2023-04-03T04:53:19;1.70;61.50
41220;DHT22;26951;47.338;9.196;2023-04-03T04:56:04;1.60;60.90
41220;DHT22;26951;47.338;9.196;2023-04-03T04:58:49;1.50;62.20
41220;DHT22;26951;47.338;9.196;2023-04-03T05:01:33;1.50;62.50
41220;DHT22;26951;47.338;9.196;2023-04-03T05:04:17;1.50;63.00
41220;DHT22;26951;47.338;9.196;2023-04-03T05:07:01;1.50;62.80
41220;DHT22;26951;47.338;9.196;2023-04-03T05:09:45;1.50;63.00
41220;DHT22;26951;47.338;9.196;2023-04-03T05:12:29;1.50;62.20
41220;DHT22;26951;47.338;9.196;2023-04-03T05:15:14;1.50;62.60
41220;DHT22;26951;47.338;9.196;2023-04-03T05:17:58;1.50;62.80
41220;DHT22;26951;47.338;9.196;2023-04-03T05:20:43;1.50;62.00
41220;DHT22;26951;47.338;9.196;2023-04-03T05:23:27;1.50;62.20
41220;DHT22;26951;47.338;9.196;2023-04-03T05:26:11;1.50;62.60
41220;DHT22;26951;47.338;9.196;2023-04-03T05:28:55;1.50;62.90
41220;DHT22;26951;47.338;9.196;2023-04-03T05:31:40;1.50;61.50
41220;DHT22;26951;47.338;9.196;2023-04-03T05:34:24;1.50;62.30
41220;DHT22;26951;47.338;9.196;2023-04-03T05:37:09;1.50;62.60
41220;DHT22;26951;47.338;9.196;2023-04-03T05:39:53;1.50;62.70
41220;DHT22;26951;47.338;9.196;2023-04-03T05:42:38;1.50;62.90
41220;DHT22;26951;47.338;9.196;2023-04-03T05:45:22;1.50;63.20
41220;DHT22;26951;47.338;9.196;2023-04-03T05:48:06;1.50;62.60
41220;DHT22;26951;47.338;9.196;2023-04-03T05:50:50;1.50;63.30
41220;DHT22;26951;47.338;9.196;2023-04-03T05:53:36;1.50;63.10
41220;DHT22;26951;47.338;9.196;2023-04-03T05:56:23;1.50;63.40
41220;DHT22;26951;47.338;9.196;2023-04-03T05:59:07;1.50;63.50
41220;DHT22;26951;47.338;9.196;2023-04-03T06:01:52;1.50;64.80
41220;DHT22;26951;47.338;9.196;2023-04-03T06:04:36;1.50;63.80
41220;DHT22;26951;47.338;9.196;2023-04-03T06:07:23;1.50;63.90
41220;DHT22;26951;47.338;9.196;2023-04-03T06:10:08;1.60;64.40
41220;DHT22;26951;47.338;9.196;2023-04-03T06:12:52;1.60;64.60
41220;DHT22;26951;47.338;9.196;2023-04-03T06:15:37;1.60;64.60
41220;DHT22;26951;47.338;9.196;2023-04-03T06:18:22;1.60;64.60
41220;DHT22;26951;47.338;9.196;2023-04-03T06:21:06;1.70;65.00
41220;DHT22;26951;47.338;9.196;2023-04-03T06:23:51;1.70;64.20
41220;DHT22;26951;47.338;9.196;2023-04-03T06:26:36;1.70;64.20
41220;DHT22;26951;47.338;9.196;2023-04-03T06:29:20;1.70;65.00
41220;DHT22;26951;47.338;9.196;2023-04-03T06:32:05;1.80;64.90
41220;DHT22;26951;47.338;9.196;2023-04-03T06:34:49;1.80;64.90
41220;DHT22;26951;47.338;9.196;2023-04-03T06:37:33;1.80;64.90
41220;DHT22;26951;47.338;9.196;2023-04-03T06:40:21;1.80;64.70
41220;DHT22;26951;47.338;9.196;2023-04-03T06:43:06;1.90;63.80
41220;DHT22;26951;47.338;9.196;2023-04-03T06:45:51;1.90;63.60
41220;DHT22;26951;47.338;9.196;2023-04-03T06:48:35;1.90;63.60
41220;DHT22;26951;47.338;9.196;2023-04-03T06:51:30;1.90;64.00
41220;DHT22;26951;47.338;9.196;2023-04-03T06:54:14;1.90;64.20
41220;DHT22;26951;47.338;9.196;2023-04-03T06:56:58;1.90;63.90
41220;DHT22;26951;47.338;9.196;2023-04-03T06:59:43;1.90;64.30
41220;DHT22;26951;47.338;9.196;2023-04-03T07:02:27;1.90;64.10
41220;DHT22;26951;47.338;9.196;2023-04-03T07:05:11;1.90;64.30
41220;DHT22;26951;47.338;9.196;2023-04-03T07:07:55;1.90;63.70
41220;DHT22;26951;47.338;9.196;2023-04-03T07:10:40;1.90;63.30
41220;DHT22;26951;47.338;9.196;2023-04-03T07:13:24;1.90;64.00
41220;DHT22;26951;47.338;9.196;2023-04-03T07:16:09;1.90;63.70
41220;DHT22;26951;47.338;9.196;2023-04-03T07:18:53;1.90;64.10
41220;DHT22;26951;47.338;9.196;2023-04-03T07:21:37;2.00;64.50
41220;DHT22;26951;47.338;9.196;2023-04-03T07:24:21;2.00;64.90
41220;DHT22;26951;47.338;9.196;2023-04-03T07:27:05;2.00;64.40
41220;DHT22;26951;47.338;9.196;2023-04-03T07:29:50;1.90;64.30
41220;DHT22;26951;47.338;9.196;2023-04-03T07:32:34;1.90;64.00
41220;DHT22;26951;47.338;9.196;2023-04-03T07:35:19;1.90;64.00
41220;DHT22;26951;47.338;9.196;2023-04-03T07:38:03;1.90;63.70
41220;DHT22;26951;47.338;9.196;2023-04-03T07:40:48;1.90;64.00
41220;DHT22;26951;47.338;9.196;2023-04-03T07:43:32;1.80;64.30
41220;DHT22;26951;47.338;9.196;2023-04-03T07:46:18;1.90;65.00
41220;DHT22;26951;47.338;9.196;2023-04-03T07:49:02;1.90;64.80
41220;DHT22;26951;47.338;9.196;2023-04-03T07:51:46;1.90;64.70
41220;DHT22;26951;47.338;9.196;2023-04-03T07:54:32;1.90;64.70
41220;DHT22;26951;47.338;9.196;2023-04-03T07:57:17;1.90;64.70
41220;DHT22;26951;47.338;9.196;2023-04-03T08:00:02;1.90;65.00
41220;DHT22;26951;47.338;9.196;2023-04-03T08:02:46;1.90;64.90
41220;DHT22;26951;47.338;9.196;2023-04-03T08:05:42;1.90;64.80
41220;DHT22;26951;47.338;9.196;2023-04-03T08:08:26;1.90;65.10
41220;DHT22;26951;47.338;9.196;2023-04-03T08:11:13;1.90;65.00
41220;DHT22;26951;47.338;9.196;2023-04-03T08:13:58;1.80;64.50
41220;DHT22;26951;47.338;9.196;2023-04-03T08:16:44;1.90;65.00
41220;DHT22;26951;47.338;9.196;2023-04-03T08:19:28;1.90;64.90
41220;DHT22;26951;47.338;9.196;2023-04-03T08:22:12;1.90;64.70
41220;DHT22;26951;47.338;9.196;2023-04-03T08:24:56;1.90;65.00
41220;DHT22;26951;47.338;9.196;2023-04-03T08:27:41;1.90;64.90
41220;DHT22;26951;47.338;9.196;2023-04-03T08:30:25;1.90;63.80
41220;DHT22;26951;47.338;9.196;2023-04-03T08:33:09;1.90;63.90
41220;DHT22;26951;47.338;9.196;2023-04-03T08:35:54;2.00;64.30
41220;DHT22;26951;47.338;9.196;2023-04-03T08:38:38;2.00;64.60
41220;DHT22;26951;47.338;9.196;2023-04-03T08:47:25;2.20;63.90
41220;DHT22;26951;47.338;9.196;2023-04-03T08:50:18;2.20;63.90
41220;DHT22;26951;47.338;9.196;2023-04-03T08:53:03;2.30;63.60
41220;DHT22;26951;47.338;9.196;2023-04-03T08:55:51;2.30;62.90
41220;DHT22;26951;47.338;9.196;2023-04-03T08:58:47;2.30;62.50
41220;DHT22;26951;47.338;9.196;2023-04-03T09:01:38;2.40;63.00
41220;DHT22;26951;47.338;9.196;2023-04-03T09:04:23;2.50;64.10
41220;DHT22;26951;47.338;9.196;2023-04-03T09:07:18;2.40;63.10
41220;DHT22;26951;47.338;9.196;2023-04-03T09:10:05;2.40;62.50
41220;DHT22;26951;47.338;9.196;2023-04-03T09:13:44;2.50;62.10
41220;DHT22;26951;47.338;9.196;2023-04-03T09:22:28;2.50;62.60
41220;DHT22;26951;47.338;9.196;2023-04-03T09:28:05;2.50;61.70
41220;DHT22;26951;47.338;9.196;2023-04-03T09:30:53;2.50;61.90
41220;DHT22;26951;47.338;9.196;2023-04-03T09:33:39;2.60;61.40
41220;DHT22;26951;47.338;9.196;2023-04-03T09:39:29;2.70;62.40
41220;DHT22;26951;47.338;9.196;2023-04-03T09:42:23;2.70;62.70
41220;DHT22;26951;47.338;9.196;2023-04-03T09:45:26;2.70;62.60
41220;DHT22;26951;47.338;9.196;2023-04-03T09:51:00;2.90;63.10
41220;DHT22;26951;47.338;9.196;2023-04-03T09:53:45;2.90;63.20
41220;DHT22;26951;47.338;9.196;2023-04-03T09:56:30;2.90;62.80
41220;DHT22;26951;47.338;9.196;2023-04-03T09:59:15;3.00;63.00
41220;DHT22;26951;47.338;9.196;2023-04-03T10:05:31;2.90;62.60
41220;DHT22;26951;47.338;9.196;2023-04-03T10:11:13;3.00;62.90
41220;DHT22;26951;47.338;9.196;2023-04-03T10:13:59;3.10;63.70
41220;DHT22;26951;47.338;9.196;2023-04-03T10:20:37;3.20;63.70
41220;DHT22;26951;47.338;9.196;2023-04-03T10:23:58;3.20;64.20
41220;DHT22;26951;47.338;9.196;2023-04-03T10:27:18;3.20;65.40
41220;DHT22;26951;47.338;9.196;2023-04-03T10:39:27;3.60;65.60
41220;DHT22;26951;47.338;9.196;2023-04-03T10:45:37;3.80;65.40
41220;DHT22;26951;47.338;9.196;2023-04-03T10:48:40;3.80;64.80
41220;DHT22;26951;47.338;9.196;2023-04-03T10:54:24;3.90;65.00
41220;DHT22;26951;47.338;9.196;2023-04-03T10:57:10;4.00;65.80
41220;DHT22;26951;47.338;9.196;2023-04-03T11:00:16;4.10;65.70
41220;DHT22;26951;47.338;9.196;2023-04-03T11:03:06;4.20;65.50
41220;DHT22;26951;47.338;9.196;2023-04-03T11:05:55;4.30;64.30
41220;DHT22;26951;47.338;9.196;2023-04-03T11:09:00;4.30;63.40
41220;DHT22;26951;47.338;9.196;2023-04-03T11:11:48;4.30;62.70
41220;DHT22;26951;47.338;9.196;2023-04-03T11:14:36;4.30;60.10
41220;DHT22;26951;47.338;9.196;2023-04-03T11:17:29;4.30;60.50
41220;DHT22;26951;47.338;9.196;2023-04-03T11:20:29;4.30;59.00
41220;DHT22;26951;47.338;9.196;2023-04-03T11:23:26;4.20;59.00
41220;DHT22;26951;47.338;9.196;2023-04-03T11:26:15;4.10;60.10
41220;DHT22;26951;47.338;9.196;2023-04-03T11:29:04;4.00;60.80
41220;DHT22;26951;47.338;9.196;2023-04-03T11:32:16;4.10;60.80
41220;DHT22;26951;47.338;9.196;2023-04-03T11:35:06;4.00;59.50
41220;DHT22;26951;47.338;9.196;2023-04-03T11:37:52;3.90;59.90
41220;DHT22;26951;47.338;9.196;2023-04-03T11:40:37;3.90;59.60
41220;DHT22;26951;47.338;9.196;2023-04-03T11:43:28;3.90;59.80
41220;DHT22;26951;47.338;9.196;2023-04-03T11:46:13;3.80;59.10
41220;DHT22;26951;47.338;9.196;2023-04-03T11:48:57;3.80;59.70
41220;DHT22;26951;47.338;9.196;2023-04-03T11:51:42;3.70;59.70
41220;DHT22;26951;47.338;9.196;2023-04-03T11:54:47;3.80;60.60
41220;DHT22;26951;47.338;9.196;2023-04-03T12:00:47;3.80;61.40
41220;DHT22;26951;47.338;9.196;2023-04-03T12:04:05;3.80;61.20
41220;DHT22;26951;47.338;9.196;2023-04-03T12:06:53;3.80;61.10
41220;DHT22;26951;47.338;9.196;2023-04-03T12:12:33;3.80;61.30
41220;DHT22;26951;47.338;9.196;2023-04-03T12:15:21;3.70;61.40
41220;DHT22;26951;47.338;9.196;2023-04-03T12:18:31;3.70;61.40
41220;DHT22;26951;47.338;9.196;2023-04-03T12:21:17;3.70;61.70
41220;DHT22;26951;47.338;9.196;2023-04-03T12:30:13;3.70;61.40
41220;DHT22;26951;47.338;9.196;2023-04-03T12:33:09;3.70;62.00
41220;DHT22;26951;47.338;9.196;2023-04-03T12:39:01;3.70;61.00
41220;DHT22;26951;47.338;9.196;2023-04-03T12:48:03;3.70;61.90
41220;DHT22;26951;47.338;9.196;2023-04-03T12:50:49;3.70;61.00
41220;DHT22;26951;47.338;9.196;2023-04-03T12:53:35;3.80;61.90
41220;DHT22;26951;47.338;9.196;2023-04-03T12:59:26;3.80;60.60
41220;DHT22;26951;47.338;9.196;2023-04-03T13:05:16;3.90;61.70
41220;DHT22;26951;47.338;9.196;2023-04-03T13:08:04;3.90;61.90
41220;DHT22;26951;47.338;9.196;2023-04-03T13:10:56;3.90;62.00
41220;DHT22;26951;47.338;9.196;2023-04-03T13:13:58;3.90;61.60
41220;DHT22;26951;47.338;9.196;2023-04-03T13:17:13;4.00;62.80
41220;DHT22;26951;47.338;9.196;2023-04-03T13:20:14;4.10;63.00
41220;DHT22;26951;47.338;9.196;2023-04-03T13:23:05;4.20;63.00
41220;DHT22;26951;47.338;9.196;2023-04-03T13:25:50;4.20;63.00
41220;DHT22;26951;47.338;9.196;2023-04-03T13:28:36;4.30;62.90
41220;DHT22;26951;47.338;9.196;2023-04-03T13:31:25;4.40;62.30
41220;DHT22;26951;47.338;9.196;2023-04-03T13:34:16;4.50;62.40
41220;DHT22;26951;47.338;9.196;2023-04-03T13:37:02;4.50;61.80
41220;DHT22;26951;47.338;9.196;2023-04-03T13:40:01;4.50;61.30
41220;DHT22;26951;47.338;9.196;2023-04-03T13:42:46;4.70;62.20
41220;DHT22;26951;47.338;9.196;2023-04-03T13:48:56;4.70;60.30
41220;DHT22;26951;47.338;9.196;2023-04-03T13:51:41;4.80;60.50
41220;DHT22;26951;47.338;9.196;2023-04-03T13:54:35;4.80;59.90
41220;DHT22;26951;47.338;9.196;2023-04-03T13:57:20;4.80;59.20
41220;DHT22;26951;47.338;9.196;2023-04-03T14:00:27;4.80;58.90
41220;DHT22;26951;47.338;9.196;2023-04-03T14:03:21;4.80;58.00
41220;DHT22;26951;47.338;9.196;2023-04-03T14:06:10;4.70;58.00
41220;DHT22;26951;47.338;9.196;2023-04-03T14:08:54;4.70;57.50
41220;DHT22;26951;47.338;9.196;2023-04-03T14:11:39;4.70;57.60
41220;DHT22;26951;47.338;9.196;2023-04-03T14:14:27;4.60;57.70
41220;DHT22;26951;47.338;9.196;2023-04-03T14:17:20;4.60;57.70
41220;DHT22;26951;47.338;9.196;2023-04-03T14:20:06;4.60;57.50
41220;DHT22;26951;47.338;9.196;2023-04-03T14:22:50;4.50;57.10
41220;DHT22;26951;47.338;9.196;2023-04-03T14:25:35;4.50;56.70
41220;DHT22;26951;47.338;9.196;2023-04-03T14:28:21;4.40;56.00
41220;DHT22;26951;47.338;9.196;2023-04-03T14:31:06;4.30;56.00
41220;DHT22;26951;47.338;9.196;2023-04-03T14:33:50;4.30;54.70
41220;DHT22;26951;47.338;9.196;2023-04-03T14:36:35;4.20;55.70
41220;DHT22;26951;47.338;9.196;2023-04-03T14:39:19;4.10;56.20
41220;DHT22;26951;47.338;9.196;2023-04-03T14:42:03;4.10;57.00
41220;DHT22;26951;47.338;9.196;2023-04-03T14:44:48;4.10;57.40
41220;DHT22;26951;47.338;9.196;2023-04-03T14:47:33;4.20;57.30
41220;DHT22;26951;47.338;9.196;2023-04-03T14:50:23;4.20;57.40
41220;DHT22;26951;47.338;9.196;2023-04-03T14:53:11;4.20;56.50
41220;DHT22;26951;47.338;9.196;2023-04-03T14:55:56;4.10;56.40
41220;DHT22;26951;47.338;9.196;2023-04-03T14:58:41;4.10;56.60
41220;DHT22;26951;47.338;9.196;2023-04-03T15:01:26;4.10;56.60
41220;DHT22;26951;47.338;9.196;2023-04-03T15:04:19;4.10;57.10
41220;DHT22;26951;47.338;9.196;2023-04-03T15:07:03;4.20;56.00
41220;DHT22;26951;47.338;9.196;2023-04-03T15:09:47;4.10;55.90
41220;DHT22;26951;47.338;9.196;2023-04-03T15:12:32;4.10;55.40
41220;DHT22;26951;47.338;9.196;2023-04-03T15:15:18;4.10;56.10
41220;DHT22;26951;47.338;9.196;2023-04-03T15:18:03;4.20;54.40
41220;DHT22;26951;47.338;9.196;2023-04-03T15:20:48;4.20;55.20
41220;DHT22;26951;47.338;9.196;2023-04-03T15:23:33;4.30;55.80
41220;DHT22;26951;47.338;9.196;2023-04-03T15:26:17;4.20;55.40
41220;DHT22;26951;47.338;9.196;2023-04-03T15:29:01;4.20;55.80
41220;DHT22;26951;47.338;9.196;2023-04-03T15:31:45;4.20;55.70
41220;DHT22;26951;47.338;9.196;2023-04-03T15:34:29;4.20;55.20
41220;DHT22;26951;47.338;9.196;2023-04-03T15:37:14;4.20;55.90
41220;DHT22;26951;47.338;9.196;2023-04-03T15:39:58;4.20;55.20
41220;DHT22;26951;47.338;9.196;2023-04-03T15:42:42;4.20;55.30
41220;DHT22;26951;47.338;9.196;2023-04-03T15:45:29;4.10;54.30
41220;DHT22;26951;47.338;9.196;2023-04-03T15:48:14;4.10;55.00
41220;DHT22;26951;47.338;9.196;2023-04-03T15:51:00;4.00;53.50
41220;DHT22;26951;47.338;9.196;2023-04-03T15:53:44;4.00;54.20
41220;DHT22;26951;47.338;9.196;2023-04-03T15:56:28;4.00;53.40
41220;DHT22;26951;47.338;9.196;2023-04-03T15:59:12;4.00;53.70
41220;DHT22;26951;47.338;9.196;2023-04-03T16:01:57;3.90;54.50
41220;DHT22;26951;47.338;9.196;2023-04-03T16:04:42;3.70;54.70
41220;DHT22;26951;47.338;9.196;2023-04-03T16:07:26;3.70;55.50
41220;DHT22;26951;47.338;9.196;2023-04-03T16:10:12;3.70;55.70
41220;DHT22;26951;47.338;9.196;2023-04-03T16:12:56;3.70;54.70
41220;DHT22;26951;47.338;9.196;2023-04-03T16:15:41;3.80;54.50
41220;DHT22;26951;47.338;9.196;2023-04-03T16:18:26;3.70;55.00
41220;DHT22;26951;47.338;9.196;2023-04-03T16:21:10;3.70;55.30
41220;DHT22;26951;47.338;9.196;2023-04-03T16:23:57;3.70;55.20
41220;DHT22;26951;47.338;9.196;2023-04-03T16:26:42;3.70;54.50
41220;DHT22;26951;47.338;9.196;2023-04-03T16:29:26;3.70;54.50
41220;DHT22;26951;47.338;9.196;2023-04-03T16:32:11;3.60;54.60
41220;DHT22;26951;47.338;9.196;2023-04-03T16:34:56;3.60;54.10
41220;DHT22;26951;47.338;9.196;2023-04-03T16:37:41;3.50;54.20
41220;DHT22;26951;47.338;9.196;2023-04-03T16:40:25;3.50;54.40
41220;DHT22;26951;47.338;9.196;2023-04-03T16:43:09;3.60;54.70
41220;DHT22;26951;47.338;9.196;2023-04-03T16:45:54;3.60;54.60
41220;DHT22;26951;47.338;9.196;2023-04-03T16:48:39;3.50;54.30
41220;DHT22;26951;47.338;9.196;2023-04-03T16:51:23;3.50;53.70
41220;DHT22;26951;47.338;9.196;2023-04-03T16:54:07;3.40;52.80
41220;DHT22;26951;47.338;9.196;2023-04-03T16:56:54;3.40;53.60
41220;DHT22;26951;47.338;9.196;2023-04-03T16:59:38;3.30;54.00
41220;DHT22;26951;47.338;9.196;2023-04-03T17:02:23;3.40;54.50
41220;DHT22;26951;47.338;9.196;2023-04-03T17:05:10;3.30;54.50
41220;DHT22;26951;47.338;9.196;2023-04-03T17:07:54;3.30;54.10
41220;DHT22;26951;47.338;9.196;2023-04-03T17:10:38;3.30;53.40
41220;DHT22;26951;47.338;9.196;2023-04-03T17:13:23;3.30;53.90
41220;DHT22;26951;47.338;9.196;2023-04-03T17:16:10;3.20;53.90
41220;DHT22;26951;47.338;9.196;2023-04-03T17:18:55;3.20;53.80
41220;DHT22;26951;47.338;9.196;2023-04-03T17:21:39;3.10;53.70
41220;DHT22;26951;47.338;9.196;2023-04-03T17:24:24;3.10;53.40
41220;DHT22;26951;47.338;9.196;2023-04-03T17:27:08;3.00;53.20
41220;DHT22;26951;47.338;9.196;2023-04-03T17:29:53;2.90;53.90
41220;DHT22;26951;47.338;9.196;2023-04-03T17:32:37;2.90;53.70
41220;DHT22;26951;47.338;9.196;2023-04-03T17:35:21;2.90;54.00
41220;DHT22;26951;47.338;9.196;2023-04-03T17:38:06;2.80;53.80
41220;DHT22;26951;47.338;9.196;2023-04-03T17:40:50;2.80;53.90
41220;DHT22;26951;47.338;9.196;2023-04-03T17:43:35;2.80;54.20
41220;DHT22;26951;47.338;9.196;2023-04-03T17:46:19;2.80;53.90
41220;DHT22;26951;47.338;9.196;2023-04-03T17:49:03;2.80;54.00
41220;DHT22;26951;47.338;9.196;2023-04-03T17:51:48;2.80;53.60
41220;DHT22;26951;47.338;9.196;2023-04-03T17:54:32;2.80;53.60
41220;DHT22;26951;47.338;9.196;2023-04-03T17:57:16;2.70;54.00
41220;DHT22;26951;47.338;9.196;2023-04-03T18:00:01;2.70;54.10
41220;DHT22;26951;47.338;9.196;2023-04-03T18:02:45;2.70;54.60
41220;DHT22;26951;47.338;9.196;2023-04-03T18:05:29;2.70;54.50
41220;DHT22;26951;47.338;9.196;2023-04-03T18:08:13;2.70;54.40
41220;DHT22;26951;47.338;9.196;2023-04-03T18:10:58;2.70;54.70
41220;DHT22;26951;47.338;9.196;2023-04-03T18:13:44;2.60;54.70
41220;DHT22;26951;47.338;9.196;2023-04-03T18:16:29;2.40;55.10
41220;DHT22;26951;47.338;9.196;2023-04-03T18:19:13;2.40;55.10
41220;DHT22;26951;47.338;9.196;2023-04-03T18:22:05;2.50;55.00
41220;DHT22;26951;47.338;9.196;2023-04-03T18:24:52;2.50;54.90
41220;DHT22;26951;47.338;9.196;2023-04-03T18:27:36;2.40;54.70
41220;DHT22;26951;47.338;9.196;2023-04-03T18:30:21;2.40;54.60
41220;DHT22;26951;47.338;9.196;2023-04-03T18:33:06;2.40;54.70
41220;DHT22;26951;47.338;9.196;2023-04-03T18:35:50;2.40;54.60
41220;DHT22;26951;47.338;9.196;2023-04-03T18:38:34;2.40;54.80
41220;DHT22;26951;47.338;9.196;2023-04-03T18:41:20;2.40;55.00
41220;DHT22;26951;47.338;9.196;2023-04-03T18:44:10;2.40;55.10
41220;DHT22;26951;47.338;9.196;2023-04-03T18:46:55;2.40;55.10
41220;DHT22;26951;47.338;9.196;2023-04-03T18:49:42;2.40;55.20
41220;DHT22;26951;47.338;9.196;2023-04-03T18:52:26;2.30;55.20
41220;DHT22;26951;47.338;9.196;2023-04-03T18:55:10;2.30;55.10
41220;DHT22;26951;47.338;9.196;2023-04-03T18:57:57;2.30;55.00
41220;DHT22;26951;47.338;9.196;2023-04-03T19:00:41;2.20;54.80
41220;DHT22;26951;47.338;9.196;2023-04-03T19:03:26;2.30;55.10
41220;DHT22;26951;47.338;9.196;2023-04-03T19:06:11;2.30;55.50